createdAt,value
2023-05-18T04:17:57.434Z,100358.87
2023-05-18T04:21:12.045Z,100373.28
2023-05-18T04:24:27.115Z,100368.87
2023-05-18T04:27:42.088Z,100374.91
2023-05-18T04:30:56.312Z,100374.91
2023-05-18T04:34:13.478Z,100379.25
2023-05-18T04:37:28.844Z,100383.75
2023-05-18T04:40:43.707Z,100386.31
2023-05-18T04:43:58.304Z,100392.81
2023-05-18T04:47:12.552Z,100394.66
2023-05-18T04:50:28.315Z,100388.31
2023-05-18T04:53:42.565Z,100393.66
2023-05-18T04:56:56.998Z,100393.06
2023-05-18T05:00:18.463Z,100396.97
2023-05-18T05:03:39.402Z,100407.22
2023-05-18T05:07:00.726Z,100399.75
2023-05-18T05:10:18.331Z,100398.91
2023-05-18T05:14:06.496Z,100401.47
2023-05-18T05:17:20.778Z,100407.38
2023-05-18T05:20:35.184Z,100411.97
2023-05-18T05:40:34.308Z,100423.66
2023-05-18T06:00:17.310Z,100436.03
2023-05-18T06:03:40.277Z,100435.03
2023-05-18T08:16:10.437Z,100525.03
2023-05-18T09:06:30.883Z,100543.06
2023-05-18T09:10:05.708Z,100538.72
2023-05-18T09:17:11.580Z,100539.47
2023-05-18T09:21:00.890Z,100536.31
2023-05-18T09:24:29.401Z,100524.03
2023-05-18T09:27:44.617Z,100533.25
2023-05-18T09:31:12.182Z,100536.72
2023-05-18T09:35:08.191Z,100536.34
2023-05-18T09:43:35.110Z,100542.50
2023-05-18T09:47:00.497Z,100538.19
2023-05-18T09:50:34.251Z,100540.94
2023-05-18T09:53:54.200Z,100545.00
2023-05-18T09:57:32.856Z,100544.69
2023-05-18T10:01:46.874Z,100553.31
2023-05-18T10:05:36.233Z,100548.44
2023-05-18T10:09:03.850Z,100553.31
2023-05-18T10:13:20.039Z,100545.37
2023-05-18T10:17:34.167Z,100547.75
2023-05-18T10:21:42.303Z,100550.78
2023-05-18T10:25:35.874Z,100555.41
2023-05-18T10:28:54.563Z,100550.09
2023-05-18T10:32:09.521Z,100560.53
2023-05-18T10:36:06.646Z,100559.50
2023-05-18T10:39:41.724Z,100554.19
2023-05-18T10:43:01.710Z,100554.28
2023-05-18T10:47:03.266Z,100557.53
2023-05-18T10:50:36.405Z,100562.59
2023-05-18T11:20:44.132Z,100558.28
2023-05-18T11:27:51.806Z,100563.72
2023-05-18T11:31:09.493Z,100564.19
2023-05-18T11:43:04.964Z,100569.37
2023-05-18T11:46:28.632Z,100574.31
2023-05-18T11:54:44.326Z,100569.78
2023-05-18T11:58:07.083Z,100576.37
2023-05-18T12:01:23.931Z,100589.84
2023-05-18T12:04:41.186Z,100577.66
2023-05-18T12:07:55.588Z,100582.75
2023-05-18T12:11:09.809Z,100585.44
2023-05-18T12:18:46.166Z,100585.59
2023-05-18T12:30:25.100Z,100595.00
2023-05-18T12:33:39.364Z,100586.75
2023-05-18T12:37:16.118Z,100594.59
2023-05-18T12:40:45.096Z,100582.47
2023-05-18T12:44:06.789Z,100583.13
2023-05-18T12:47:24.767Z,100587.09
2023-05-18T12:50:49.683Z,100584.16
2023-05-18T12:57:42.258Z,100589.13
2023-05-18T13:00:56.504Z,100582.31
2023-05-18T13:04:12.606Z,100580.56
2023-05-18T13:07:28.207Z,100586.78
2023-05-18T13:10:45.528Z,100591.38
2023-05-18T13:14:00.798Z,100587.28
2023-05-18T13:17:24.452Z,100585.00
2023-05-18T13:20:48.693Z,100584.91
2023-05-18T13:24:06.692Z,100586.34
2023-05-18T13:27:21.885Z,100581.00
2023-05-18T13:30:40.492Z,100584.66
2023-05-18T13:34:27.834Z,100588.72
2023-05-18T13:41:22.141Z,100593.41
2023-05-18T13:44:40.097Z,100598.84
2023-05-18T14:01:48.979Z,100598.44
2023-05-18T14:37:59.436Z,100605.34
2023-05-18T14:45:25.358Z,100612.84
2023-05-18T14:48:52.573Z,100605.03
2023-05-18T14:52:11.612Z,100609.13
2023-05-18T14:55:33.536Z,100611.38
2023-05-18T14:58:48.480Z,100617.19
2023-05-18T15:02:06.243Z,100616.03
2023-05-18T15:05:35.798Z,100611.47
2023-05-18T15:08:52.969Z,100621.19
2023-05-18T15:16:49.418Z,100606.37
2023-05-18T15:20:13.130Z,100613.56
2023-05-18T15:23:27.263Z,100614.62
